createdAt,value
2019-03-10T00:02:05.176Z,10.45
2019-03-10T00:05:12.809Z,10.36
2019-03-10T00:08:20.498Z,10.29
2019-03-10T00:11:28.302Z,10.28
2019-03-10T00:14:36.417Z,10.30
2019-03-10T00:17:44.124Z,10.29
2019-03-10T00:20:51.613Z,10.30
2019-03-10T00:23:59.191Z,10.20
2019-03-10T00:27:07.424Z,10.18
2019-03-10T00:30:16.257Z,10.22
2019-03-10T00:33:23.796Z,10.31
2019-03-10T00:36:31.382Z,10.20
2019-03-10T00:40:28.984Z,10.07
2019-03-10T00:44:26.642Z,9.94
2019-03-10T00:48:13.454Z,10.01
2019-03-10T00:52:07.822Z,9.81
2019-03-10T00:55:18.080Z,9.85
2019-03-10T00:58:25.544Z,9.82
2019-03-10T01:01:32.854Z,9.95
2019-03-10T01:04:40.666Z,9.88
2019-03-10T01:07:48.694Z,9.84
2019-03-10T01:10:56.913Z,9.91
2019-03-10T01:14:04.490Z,9.82
2019-03-10T01:17:12.242Z,9.66
2019-03-10T01:20:19.713Z,9.63
2019-03-10T01:23:27.105Z,9.33
2019-03-10T01:26:34.518Z,9.53
2019-03-10T01:29:42.050Z,9.60
2019-03-10T01:33:17.630Z,9.52
2019-03-10T01:36:24.042Z,9.71
2019-03-10T01:39:31.448Z,9.48
2019-03-10T01:42:39.125Z,9.46
2019-03-10T01:45:46.767Z,9.71
2019-03-10T01:48:53.966Z,9.59
2019-03-10T01:52:01.628Z,9.52
2019-03-10T01:55:10.013Z,9.53
2019-03-10T01:58:17.737Z,9.55
2019-03-10T02:01:25.332Z,9.41
2019-03-10T02:04:33.443Z,9.37
2019-03-10T02:07:41.129Z,9.56
2019-03-10T02:10:48.598Z,9.54
2019-03-10T02:14:12.101Z,9.50
2019-03-10T02:17:20.122Z,9.37
2019-03-10T02:20:27.616Z,9.38
2019-03-10T02:23:34.998Z,9.20
2019-03-10T02:26:42.288Z,9.18
2019-03-10T02:29:50.103Z,9.01
2019-03-10T02:32:57.662Z,9.12
2019-03-10T02:36:05.614Z,9.18
2019-03-10T02:39:13.313Z,9.40
2019-03-10T02:42:25.559Z,9.37
2019-03-10T02:45:32.986Z,9.54
2019-03-10T02:48:40.941Z,9.46
2019-03-10T02:51:48.105Z,9.57
2019-03-10T02:54:55.433Z,9.54
2019-03-10T02:58:03.011Z,9.54
2019-03-10T03:01:10.378Z,9.56
2019-03-10T03:04:17.750Z,9.56
2019-03-10T03:07:24.930Z,9.63
2019-03-10T03:10:32.416Z,9.68
2019-03-10T03:13:39.883Z,9.72
2019-03-10T03:16:47.564Z,9.69
2019-03-10T03:19:54.859Z,9.83
2019-03-10T03:23:02.253Z,9.94
2019-03-10T03:26:09.990Z,10.02
2019-03-10T03:29:17.480Z,10.14
2019-03-10T03:32:25.286Z,10.20
2019-03-10T03:35:46.934Z,10.07
2019-03-10T03:39:29.487Z,10.19
2019-03-10T03:42:36.909Z,10.19
2019-03-10T03:45:44.640Z,9.97
2019-03-10T03:48:52.216Z,9.52
2019-03-10T03:51:59.798Z,9.02
2019-03-10T03:55:07.396Z,8.73
2019-03-10T03:58:15.198Z,8.41
2019-03-10T04:01:26.480Z,8.35
2019-03-10T04:04:33.767Z,8.20
2019-03-10T04:07:41.885Z,8.03
2019-03-10T04:10:49.157Z,8.04
2019-03-10T04:13:56.692Z,8.15
2019-03-10T04:17:04.681Z,7.88
2019-03-10T04:20:12.149Z,7.94
2019-03-10T04:23:19.438Z,7.98
2019-03-10T04:26:28.309Z,7.86
2019-03-10T04:29:35.587Z,7.68
2019-03-10T04:32:42.867Z,7.67
2019-03-10T04:35:50.573Z,7.78
2019-03-10T04:38:58.164Z,7.86
2019-03-10T04:42:05.547Z,7.73
2019-03-10T04:45:13.030Z,7.74
2019-03-10T04:48:20.531Z,7.64
2019-03-10T04:51:27.809Z,7.68
2019-03-10T04:54:50.183Z,7.72
2019-03-10T04:58:02.965Z,7.76
2019-03-10T05:01:10.362Z,7.86
2019-03-10T05:04:17.991Z,7.99
2019-03-10T05:07:25.505Z,7.88
2019-03-10T05:10:32.998Z,7.84
2019-03-10T05:13:40.277Z,7.51
2019-03-10T05:16:47.924Z,7.61
2019-03-10T05:19:55.405Z,7.53
2019-03-10T05:23:41.068Z,7.41
2019-03-10T05:26:48.829Z,7.33
2019-03-10T05:29:56.207Z,7.25
2019-03-10T05:33:03.700Z,7.28
2019-03-10T05:36:11.694Z,7.28
2019-03-10T05:39:19.268Z,7.12
2019-03-10T05:42:26.870Z,7.13
2019-03-10T05:45:34.555Z,7.28
2019-03-10T05:48:41.856Z,7.25
2019-03-10T05:51:49.421Z,7.36
2019-03-10T05:54:56.975Z,7.41
2019-03-10T05:58:04.460Z,7.45
2019-03-10T06:01:11.841Z,7.51
2019-03-10T06:04:19.042Z,7.52
2019-03-10T06:07:26.241Z,7.58
2019-03-10T06:10:33.634Z,7.54
2019-03-10T06:13:41.227Z,7.53
2019-03-10T06:16:48.503Z,7.63
2019-03-10T06:19:55.977Z,7.68
2019-03-10T06:23:03.837Z,7.67
2019-03-10T06:26:11.080Z,7.71
2019-03-10T06:29:18.472Z,7.59
2019-03-10T06:32:25.655Z,7.60
2019-03-10T06:35:33.032Z,7.63
2019-03-10T06:38:40.833Z,7.68
2019-03-10T06:44:56.452Z,7.68
2019-03-10T06:48:04.086Z,7.67
2019-03-10T06:51:11.511Z,7.76
2019-03-10T06:54:18.941Z,7.63
2019-03-10T06:57:26.587Z,7.69
2019-03-10T07:00:33.790Z,7.66
2019-03-10T07:03:41.680Z,7.68
2019-03-10T07:06:49.499Z,7.76
2019-03-10T07:09:56.905Z,7.70
2019-03-10T07:13:04.453Z,7.72
2019-03-10T07:16:12.301Z,7.82
2019-03-10T07:19:20.358Z,7.74
2019-03-10T07:22:28.413Z,7.87
2019-03-10T07:25:37.803Z,7.83
2019-03-10T07:28:55.078Z,7.96
2019-03-10T07:32:20.048Z,8.03
2019-03-10T07:35:46.728Z,8.11
2019-03-10T07:39:14.879Z,8.09
2019-03-10T07:42:32.260Z,8.09
2019-03-10T07:46:07.534Z,7.81
2019-03-10T07:49:29.388Z,8.14
2019-03-10T07:52:57.071Z,8.13
2019-03-10T07:56:15.574Z,8.34
2019-03-10T07:59:30.139Z,8.31
2019-03-10T08:02:55.797Z,8.46
2019-03-10T08:06:16.972Z,8.58
2019-03-10T08:09:34.631Z,8.82
2019-03-10T08:13:04.701Z,8.90
2019-03-10T08:16:38.507Z,9.12
2019-03-10T08:20:23.694Z,9.48
2019-03-10T08:23:38.139Z,9.71
2019-03-10T08:26:52.771Z,9.91
2019-03-10T08:30:20.645Z,10.06
2019-03-10T08:34:00.125Z,10.01
2019-03-10T08:37:20.430Z,10.25
2019-03-10T08:40:53.773Z,10.43
2019-03-10T08:44:17.226Z,10.56
2019-03-10T08:47:37.432Z,10.66
2019-03-10T08:51:07.485Z,10.75
2019-03-10T08:54:46.685Z,10.90
2019-03-10T08:58:13.146Z,10.98
2019-03-10T09:01:52.719Z,11.07
2019-03-10T09:05:18.332Z,11.21
2019-03-10T09:08:48.523Z,11.23
2019-03-10T09:12:06.296Z,11.39
2019-03-10T09:15:24.302Z,11.38
2019-03-10T09:18:42.235Z,11.31
2019-03-10T09:22:05.638Z,11.42
2019-03-10T09:25:51.017Z,11.43
2019-03-10T09:29:11.980Z,11.53
2019-03-10T09:32:27.631Z,11.54
2019-03-10T09:35:53.838Z,11.51
2019-03-10T09:39:19.438Z,11.50
2019-03-10T09:42:49.639Z,11.43
2019-03-10T09:46:05.085Z,11.43
2019-03-10T09:49:30.318Z,11.35
2019-03-10T09:53:02.548Z,11.30
2019-03-10T09:56:28.300Z,11.27
2019-03-10T09:59:55.420Z,11.23
2019-03-10T10:03:11.176Z,11.31
2019-03-10T10:06:32.850Z,11.23
2019-03-10T10:10:06.451Z,11.02
2019-03-10T10:13:38.096Z,10.91
2019-03-10T10:17:11.535Z,10.82
2019-03-10T10:20:35.909Z,10.77
2019-03-10T10:23:50.241Z,10.66
2019-03-10T10:27:10.612Z,10.70
2019-03-10T10:30:41.165Z,10.73
2019-03-10T10:34:16.895Z,10.65
2019-03-10T10:37:35.516Z,10.64
2019-03-10T10:41:09.370Z,10.59
2019-03-10T10:44:24.636Z,10.52
2019-03-10T10:48:04.968Z,10.43
2019-03-10T10:51:20.983Z,10.38
2019-03-10T10:54:54.209Z,10.49
2019-03-10T10:58:20.517Z,10.39
2019-03-10T11:01:59.908Z,10.39
2019-03-10T11:05:36.663Z,10.40
2019-03-10T11:08:56.589Z,10.46
2019-03-10T11:12:28.931Z,10.61
2019-03-10T11:15:49.837Z,10.63
2019-03-10T11:19:26.311Z,10.62
2019-03-10T11:22:46.010Z,10.65
2019-03-10T11:26:12.026Z,10.75
2019-03-10T11:29:29.171Z,10.69
2019-03-10T11:32:52.640Z,10.53
2019-03-10T11:36:18.680Z,10.36
2019-03-10T11:39:48.682Z,10.47
2019-03-10T11:43:04.304Z,10.78
2019-03-10T11:46:32.625Z,10.82
2019-03-10T11:50:02.748Z,10.97
2019-03-10T11:53:48.892Z,11.12
2019-03-10T11:57:15.521Z,11.19
2019-03-10T12:00:46.202Z,11.29
2019-03-10T12:04:10.316Z,11.49
2019-03-10T12:07:26.788Z,11.63
2019-03-10T12:10:34.644Z,12.08
2019-03-10T12:13:42.773Z,12.31
2019-03-10T12:16:50.874Z,12.34
2019-03-10T12:19:58.798Z,11.97
2019-03-10T12:23:06.382Z,11.75
2019-03-10T12:26:14.187Z,11.81
2019-03-10T12:29:22.123Z,12.06
2019-03-10T12:32:32.987Z,12.25
2019-03-10T12:35:41.097Z,12.54
2019-03-10T12:38:51.805Z,12.48
2019-03-10T12:41:59.490Z,12.48
2019-03-10T12:45:07.385Z,12.40
2019-03-10T12:48:15.685Z,12.58
2019-03-10T12:51:23.282Z,12.80
2019-03-10T12:54:31.092Z,12.76
2019-03-10T12:57:39.061Z,12.87
2019-03-10T13:00:46.689Z,12.95
2019-03-10T13:03:58.941Z,13.07
2019-03-10T13:07:04.983Z,13.37
2019-03-10T13:10:13.971Z,13.31
2019-03-10T13:13:21.851Z,13.44
2019-03-10T13:16:30.189Z,13.41
2019-03-10T13:19:38.489Z,13.15
2019-03-10T13:22:46.584Z,13.15
2019-03-10T13:25:55.171Z,13.16
2019-03-10T13:29:03.279Z,13.23
2019-03-10T13:32:10.818Z,13.36
2019-03-10T13:35:18.663Z,13.34
2019-03-10T13:38:26.292Z,13.25
2019-03-10T13:41:34.434Z,13.44
2019-03-10T13:44:41.914Z,13.43
2019-03-10T13:47:50.444Z,13.40
2019-03-10T13:50:58.513Z,13.41
2019-03-10T13:54:06.071Z,13.61
2019-03-10T13:57:13.813Z,13.71
2019-03-10T14:00:23.563Z,13.76
2019-03-10T14:03:31.982Z,13.85
2019-03-10T14:06:41.013Z,14.06
2019-03-10T14:09:49.678Z,14.04
2019-03-10T14:12:57.728Z,14.15
2019-03-10T14:16:05.351Z,14.08
2019-03-10T14:19:12.781Z,14.23
2019-03-10T14:22:21.145Z,14.28
2019-03-10T14:25:29.264Z,14.15
2019-03-10T14:28:37.698Z,14.20
2019-03-10T14:31:49.420Z,14.16
2019-03-10T14:34:57.499Z,13.93
2019-03-10T14:38:05.153Z,14.15
2019-03-10T14:41:12.745Z,14.14
2019-03-10T14:44:20.803Z,14.02
2019-03-10T14:47:29.298Z,14.07
2019-03-10T14:50:38.770Z,14.02
2019-03-10T14:53:47.503Z,14.04
2019-03-10T14:56:55.893Z,13.93
2019-03-10T15:00:05.631Z,13.83
2019-03-10T15:03:13.216Z,13.85
2019-03-10T15:06:21.166Z,13.63
2019-03-10T15:09:29.456Z,13.51
2019-03-10T15:12:37.681Z,13.41
2019-03-10T15:15:45.498Z,13.48
2019-03-10T15:18:53.577Z,13.12
2019-03-10T15:22:01.389Z,13.05
2019-03-10T15:25:10.335Z,13.04
2019-03-10T15:28:18.713Z,13.00
2019-03-10T15:31:26.553Z,13.02
2019-03-10T15:34:34.111Z,13.16
2019-03-10T15:37:42.155Z,13.20
2019-03-10T15:40:50.591Z,13.03
2019-03-10T15:44:01.056Z,12.86
2019-03-10T15:47:09.208Z,12.71
2019-03-10T15:50:19.076Z,12.72
2019-03-10T15:53:27.125Z,12.90
2019-03-10T15:56:34.756Z,13.07
2019-03-10T15:59:42.397Z,13.05
2019-03-10T16:02:50.657Z,12.77
2019-03-10T16:05:59.260Z,12.86
2019-03-10T16:09:07.168Z,12.92
2019-03-10T16:12:15.034Z,13.20
2019-03-10T16:15:23.033Z,13.20
2019-03-10T16:18:31.295Z,12.95
2019-03-10T16:21:39.551Z,12.70
2019-03-10T16:24:47.252Z,12.61
2019-03-10T16:27:55.110Z,12.47
2019-03-10T16:34:10.321Z,12.36
2019-03-10T16:37:18.184Z,12.19
2019-03-10T16:40:26.175Z,12.13
2019-03-10T16:43:34.635Z,12.16
2019-03-10T16:46:42.561Z,12.14
2019-03-10T16:49:50.555Z,11.99
2019-03-10T16:52:58.288Z,11.83
2019-03-10T16:56:06.194Z,11.81
2019-03-10T16:59:13.828Z,11.80
2019-03-10T17:02:21.524Z,11.74
2019-03-10T17:05:29.403Z,11.76
2019-03-10T17:08:36.736Z,11.67
2019-03-10T17:11:44.577Z,11.43
2019-03-10T17:14:52.110Z,11.38
2019-03-10T17:17:59.808Z,11.22
2019-03-10T17:21:07.450Z,11.13
2019-03-10T17:24:15.005Z,11.03
2019-03-10T17:27:23.289Z,11.06
2019-03-10T17:30:31.188Z,11.08
2019-03-10T17:33:39.058Z,11.16
2019-03-10T17:36:46.921Z,11.08
2019-03-10T17:39:54.615Z,10.73
2019-03-10T17:43:02.543Z,10.66
2019-03-10T17:46:10.310Z,10.56
2019-03-10T17:49:17.879Z,10.50
2019-03-10T17:52:25.872Z,10.47
2019-03-10T17:55:33.449Z,10.48
2019-03-10T17:58:41.159Z,10.41
2019-03-10T18:01:48.955Z,10.54
2019-03-10T18:04:59.515Z,10.53
2019-03-10T18:08:07.288Z,10.54
2019-03-10T18:11:15.104Z,10.52
2019-03-10T18:14:22.921Z,10.57
2019-03-10T18:17:30.405Z,10.49
2019-03-10T18:20:38.151Z,10.43
2019-03-10T18:23:45.983Z,10.38
2019-03-10T18:26:53.819Z,10.25
2019-03-10T18:30:01.426Z,10.13
2019-03-10T18:33:09.431Z,10.03
2019-03-10T18:36:16.873Z,9.98
2019-03-10T18:39:25.174Z,9.99
2019-03-10T18:42:33.226Z,9.96
2019-03-10T18:45:40.845Z,10.01
2019-03-10T18:48:48.825Z,9.75
2019-03-10T18:51:56.830Z,9.79
2019-03-10T18:55:07.256Z,9.73
2019-03-10T18:58:14.794Z,9.65
2019-03-10T19:01:22.379Z,9.63
2019-03-10T19:04:30.141Z,9.51
2019-03-10T19:07:37.546Z,9.54
2019-03-10T19:10:46.107Z,9.48
2019-03-10T19:13:54.243Z,9.37
2019-03-10T19:17:01.771Z,9.22
2019-03-10T19:20:10.511Z,9.23
2019-03-10T19:23:18.623Z,9.36
2019-03-10T19:26:26.534Z,9.28
2019-03-10T19:29:34.680Z,9.20
2019-03-10T19:32:42.574Z,9.23
2019-03-10T19:35:57.721Z,9.17
2019-03-10T19:39:06.129Z,9.11
2019-03-10T19:42:14.382Z,9.10
2019-03-10T19:45:22.198Z,9.02
2019-03-10T19:48:29.886Z,8.83
2019-03-10T19:51:37.218Z,8.81
2019-03-10T19:54:44.642Z,8.76
2019-03-10T19:57:52.573Z,8.84
2019-03-10T20:01:00.389Z,8.66
2019-03-10T20:04:08.086Z,8.51
2019-03-10T20:07:15.517Z,8.65
2019-03-10T20:10:23.154Z,8.67
2019-03-10T20:13:31.158Z,8.74
2019-03-10T20:16:38.711Z,8.66
2019-03-10T20:19:46.222Z,8.51
2019-03-10T20:22:54.062Z,8.46
2019-03-10T20:26:02.219Z,8.43
2019-03-10T20:29:10.111Z,8.46
2019-03-10T20:32:17.924Z,8.45
2019-03-10T20:35:25.419Z,8.46
2019-03-10T20:38:33.159Z,8.34
2019-03-10T20:41:40.864Z,8.35
2019-03-10T20:44:48.988Z,8.44
2019-03-10T20:47:57.365Z,8.54
2019-03-10T20:51:05.463Z,8.42
2019-03-10T20:54:13.961Z,8.33
2019-03-10T20:57:21.787Z,8.51
2019-03-10T21:00:29.371Z,8.47
2019-03-10T21:03:37.241Z,8.44
2019-03-10T21:06:44.515Z,8.50
2019-03-10T21:09:52.167Z,8.39
2019-03-10T21:13:00.190Z,8.46
2019-03-10T21:16:07.566Z,8.32
2019-03-10T21:19:16.158Z,8.35
2019-03-10T21:22:24.331Z,8.36
2019-03-10T21:25:31.849Z,8.44
2019-03-10T21:28:39.599Z,8.60
2019-03-10T21:31:47.703Z,8.56
2019-03-10T21:34:55.214Z,8.54
2019-03-10T21:38:03.002Z,8.53
2019-03-10T21:41:14.512Z,8.38
2019-03-10T21:44:26.567Z,7.82
2019-03-10T21:47:29.196Z,7.47
2019-03-10T21:50:36.875Z,7.21
2019-03-10T21:53:44.411Z,7.08
2019-03-10T21:56:52.420Z,6.93
2019-03-10T22:00:01.084Z,6.71
2019-03-10T22:03:08.499Z,6.61
2019-03-10T22:06:15.888Z,6.63
2019-03-10T22:09:23.592Z,6.46
2019-03-10T22:12:31.027Z,6.13
2019-03-10T22:15:41.978Z,5.94
2019-03-10T22:18:48.195Z,5.72
2019-03-10T22:21:56.139Z,5.70
2019-03-10T22:25:12.119Z,5.57
2019-03-10T22:28:14.203Z,5.56
2019-03-10T22:31:21.441Z,5.57
2019-03-10T22:34:28.994Z,5.56
2019-03-10T22:37:36.282Z,5.50
2019-03-10T22:40:43.983Z,5.40
2019-03-10T22:43:51.548Z,5.28
2019-03-10T22:46:59.316Z,5.32
2019-03-10T22:50:08.192Z,5.27
2019-03-10T22:53:15.375Z,5.24
2019-03-10T22:56:23.111Z,5.11
2019-03-10T22:59:30.735Z,5.36
2019-03-10T23:02:38.208Z,5.30
2019-03-10T23:05:45.693Z,5.30
2019-03-10T23:08:53.138Z,5.25
2019-03-10T23:12:00.888Z,5.30
2019-03-10T23:15:09.588Z,5.31
2019-03-10T23:18:16.840Z,5.32
2019-03-10T23:21:24.322Z,5.38
2019-03-10T23:24:31.594Z,5.42
2019-03-10T23:27:39.109Z,5.25
2019-03-10T23:30:46.687Z,5.27
2019-03-10T23:33:54.183Z,5.30
2019-03-10T23:37:01.781Z,5.29
2019-03-10T23:40:09.878Z,5.19
2019-03-10T23:43:17.213Z,5.21
2019-03-10T23:46:24.477Z,5.19
2019-03-10T23:49:31.651Z,5.18
2019-03-10T23:52:39.519Z,5.06
2019-03-10T23:55:46.784Z,4.92
2019-03-10T23:58:54.354Z,5.01
